»·PEaware :: N6005F KJFK-KEWR

N6005F :: KJFK-KEWR

FLIGHT INFORMATION

Flight Status: Arrived
Operator: Privately registered:
United States
More flights under this callsign
Pilot: Anonymous 18904 (18904)
Aircraft: CANADAIR CL-600 CHALLENGER
(CL60)
More flights by this aircraft type
Origin: KJFK Kennedy Intl
United States
Destination: KEWR Newark Intl
United States
More flights between these airports :: More routes between these airports
Route: JFK5 V16 DIXIE V276 RBV V249 SBJ
File this flight plan on PilotEdge
Remarks:
Altitude:
(Current/Filed)
6,000ft
Speed:
(Current/Filed)
273kts
Departed: 03-Dec-22 06:46 AM
Arrived: 03-Dec-22 07:38 AM
Distance/Time
Traveled:
18nm/0:52
Distance/Time
To Go:
Arrived

Flight Plot

Page will automatically refresh every two minutes.

Flight plan parsing failed; only flown route is shown


Map Options




Map Legend


Flown Route
Filed Route
Departure Airport
Arrival Airport
Navaid (VOR, NDB)
Fix

Horizontal Profiles

Position Reports

Time Latitude Longitude Heading Altitude Ground
Speed
03-Dec-22 06:27 40.649234 -73.809845 30 20ft 0kts
03-Dec-22 06:28 40.649234 -73.809845 30 20ft 0kts
03-Dec-22 06:29 40.648819 -73.810074 30 20ft 0kts
03-Dec-22 06:30 40.648819 -73.810074 30 20ft 0kts
03-Dec-22 06:31 40.648819 -73.810074 30 20ft 0kts
03-Dec-22 06:32 40.648819 -73.810074 30 20ft 0kts
03-Dec-22 06:33 40.648819 -73.810074 30 20ft 0kts
03-Dec-22 06:34 40.648819 -73.810074 30 20ft 0kts
03-Dec-22 06:35 40.648819 -73.810074 30 20ft 0kts
03-Dec-22 06:36 40.648819 -73.810074 30 20ft 0kts
03-Dec-22 06:37 40.648819 -73.810074 30 20ft 0kts
03-Dec-22 06:38 40.648819 -73.810074 30 20ft 0kts
03-Dec-22 06:39 40.648819 -73.810074 30 20ft 0kts
03-Dec-22 06:40 40.649304 -73.810530 283 20ft 9kts
03-Dec-22 06:41 40.648957 -73.813651 251 20ft 7kts
03-Dec-22 06:42 40.648627 -73.814935 209 20ft 1kts
03-Dec-22 06:43 40.648123 -73.815312 207 20ft 12kts
03-Dec-22 06:44 40.647642 -73.815105 120 20ft 0kts
03-Dec-22 06:45 40.639018 -73.795562 119 216ft 166kts
03-Dec-22 06:46 40.596386 -73.748017 145 3414ft 233kts
03-Dec-22 06:47 40.536495 -73.701915 182 5001ft 256kts
03-Dec-22 06:48 40.476818 -73.749421 220 5003ft 253kts
03-Dec-22 06:49 40.422545 -73.809080 221 5002ft 253kts
03-Dec-22 06:50 40.368455 -73.868852 221 5278ft 253kts
03-Dec-22 06:51 40.314889 -73.930921 239 5977ft 254kts
03-Dec-22 06:52 40.288440 -74.017037 263 5821ft 256kts
03-Dec-22 06:53 40.286632 -74.109770 267 4640ft 252kts
03-Dec-22 06:54 40.285789 -74.198567 267 4016ft 214kts
03-Dec-22 06:55 40.285368 -74.275836 267 4004ft 210kts
03-Dec-22 06:56 40.284995 -74.352902 267 4002ft 210kts
03-Dec-22 06:57 40.326810 -74.386047 7 4007ft 231kts
03-Dec-22 06:58 40.386768 -74.360443 36 3997ft 216kts
03-Dec-22 06:59 40.436675 -74.330417 339 3138ft 192kts
03-Dec-22 07:00 40.482025 -74.359220 23 2986ft 197kts
03-Dec-22 07:01 40.512421 -74.305449 57 3012ft 177kts
03-Dec-22 07:02 40.545270 -74.258266 26 2929ft 179kts
03-Dec-22 07:03 40.584286 -74.233273 25 2090ft 142kts
03-Dec-22 07:04 40.619438 -74.211050 26 1351ft 137kts
03-Dec-22 07:05 40.653200 -74.189664 27 649ft 130kts
03-Dec-22 07:06 40.686822 -74.168288 29 885ft 166kts
03-Dec-22 07:07 40.732359 -74.112590 47 3117ft 272kts
03-Dec-22 07:08 40.788415 -74.064903 332 2944ft 241kts
03-Dec-22 07:09 40.803986 -74.142375 249 3921ft 235kts
03-Dec-22 07:10 40.778831 -74.220635 231 3992ft 228kts
03-Dec-22 07:11 40.736486 -74.281978 227 3142ft 226kts
03-Dec-22 07:12 40.694031 -74.343424 227 3002ft 227kts
03-Dec-22 07:13 40.651454 -74.405161 227 3001ft 227kts
03-Dec-22 07:14 40.609082 -74.466644 227 3001ft 226kts
03-Dec-22 07:15 40.560808 -74.513388 166 2997ft 230kts
03-Dec-22 07:16 40.513492 -74.457618 137 3011ft 209kts
03-Dec-22 07:17 40.486247 -74.395181 78 3029ft 216kts
03-Dec-22 07:18 40.504442 -74.319543 58 3006ft 219kts
03-Dec-22 07:19 40.543556 -74.259994 27 2952ft 212kts
03-Dec-22 07:20 40.592610 -74.228033 25 1924ft 192kts
03-Dec-22 07:21 40.634035 -74.201827 27 1067ft 135kts
03-Dec-22 07:22 40.666648 -74.181139 27 370ft 127kts
03-Dec-22 07:23 40.700489 -74.150746 52 2236ft 205kts
03-Dec-22 07:24 40.750189 -74.090245 28 3034ft 241kts
03-Dec-22 07:25 40.786639 -74.137211 259 3008ft 227kts
03-Dec-22 07:26 40.767386 -74.216158 228 3024ft 242kts
03-Dec-22 07:27 40.717911 -74.278234 217 2997ft 247kts
03-Dec-22 07:28 40.662811 -74.333354 217 3001ft 247kts
03-Dec-22 07:29 40.607965 -74.388231 217 3002ft 247kts
03-Dec-22 07:30 40.553025 -74.443212 217 3001ft 247kts
03-Dec-22 07:31 40.507705 -74.410454 88 3039ft 228kts
03-Dec-22 07:32 40.514178 -74.327758 66 2987ft 229kts
03-Dec-22 07:33 40.548717 -74.258826 35 2138ft 222kts
03-Dec-22 07:34 40.598001 -74.224801 25 2009ft 192kts
03-Dec-22 07:35 40.643922 -74.195767 27 787ft 161kts
03-Dec-22 07:36 40.677734 -74.174149 27 122ft 127kts
03-Dec-22 07:37 40.695073 -74.164554 355 26ft 24kts
03-Dec-22 07:38 40.696830 -74.167149 296 26ft 0kts
03-Dec-22 07:39 40.699172 -74.165886 26 26ft 16kts
03-Dec-22 07:40 40.702660 -74.164578 341 26ft 10kts
03-Dec-22 07:41 40.703065 -74.166706 322 26ft 6kts
03-Dec-22 07:42 40.705690 -74.169398 291 26ft 5kts
03-Dec-22 07:43 40.706026 -74.169674 1 26ft 0kts
03-Dec-22 07:44 40.706026 -74.169674 1 26ft 0kts
03-Dec-22 07:45 40.706026 -74.169674 1 26ft 0kts
03-Dec-22 07:46 40.706026 -74.169674 1 26ft 0kts
03-Dec-22 07:47 40.706026 -74.169674 1 26ft 0kts

Navigation Log

Ident Type
Flight plan parsing failed, navigation log unavailable